Terminal Aerodrome Forecast
Issued by NWS

Home | Current Version | Previous Version | Text Only | Print | Product List | Glossary On
Versions: 1 2 3 4 5 6 7 8 9 10 11 12 13 14 15 16
000
FTUS45 KTFX 280500
TAFHLN
TAF
KHLN 280534Z 2806/2906 VRB06KT P6SM OVC050
      TEMPO 2806/2808 4SM -SN BR OVC025
     FM281300 VRB06KT P6SM OVC050
      TEMPO 2813/2817 1SM -SN BR OVC020
     FM281700 34010KT 3/4SM -SN BR OVC020
     FM282300 34014KT 3SM -SN BR OVC025
     FM290300 36010KT P6SM OVC028=

USA.gov is the U.S. government's official web portal to all federal, state and local government web resources and services.